sensor_id;sensor_type;location;lat;lon;timestamp;P1;durP1;ratioP1;P2;durP2;ratioP2
22429;SDS011;11382;48.086;11.632;2022-07-10T00:02:24;6.15;;;3.60;;
22429;SDS011;11382;48.086;11.632;2022-07-10T00:04:52;5.47;;;3.55;;
22429;SDS011;11382;48.086;11.632;2022-07-10T00:07:20;6.85;;;3.65;;
22429;SDS011;11382;48.086;11.632;2022-07-10T00:09:48;4.93;;;3.50;;
22429;SDS011;11382;48.086;11.632;2022-07-10T00:12:18;4.65;;;3.50;;
22429;SDS011;11382;48.086;11.632;2022-07-10T00:14:46;5.97;;;3.90;;
22429;SDS011;11382;48.086;11.632;2022-07-10T00:17:13;4.78;;;3.70;;
22429;SDS011;11382;48.086;11.632;2022-07-10T00:19:42;4.97;;;3.92;;
22429;SDS011;11382;48.086;11.632;2022-07-10T00:22:10;5.85;;;3.50;;
22429;SDS011;11382;48.086;11.632;2022-07-10T00:24:38;5.70;;;3.80;;
22429;SDS011;11382;48.086;11.632;2022-07-10T00:27:06;5.90;;;3.58;;
22429;SDS011;11382;48.086;11.632;2022-07-10T00:29:35;6.15;;;3.58;;
22429;SDS011;11382;48.086;11.632;2022-07-10T00:32:03;4.55;;;3.85;;
22429;SDS011;11382;48.086;11.632;2022-07-10T00:34:31;6.38;;;4.22;;
22429;SDS011;11382;48.086;11.632;2022-07-10T00:37:00;8.18;;;4.20;;
22429;SDS011;11382;48.086;11.632;2022-07-10T00:39:28;6.30;;;4.63;;
22429;SDS011;11382;48.086;11.632;2022-07-10T00:42:05;7.63;;;4.47;;
22429;SDS011;11382;48.086;11.632;2022-07-10T00:44:34;7.07;;;5.18;;
22429;SDS011;11382;48.086;11.632;2022-07-10T00:47:03;7.22;;;5.57;;
22429;SDS011;11382;48.086;11.632;2022-07-10T00:49:32;6.80;;;5.93;;
22429;SDS011;11382;48.086;11.632;2022-07-10T00:52:01;7.10;;;6.40;;
22429;SDS011;11382;48.086;11.632;2022-07-10T00:54:31;9.30;;;6.47;;
22429;SDS011;11382;48.086;11.632;2022-07-10T00:56:59;7.40;;;6.20;;
22429;SDS011;11382;48.086;11.632;2022-07-10T00:59:30;6.97;;;6.32;;
22429;SDS011;11382;48.086;11.632;2022-07-10T01:01:59;9.20;;;6.55;;
22429;SDS011;11382;48.086;11.632;2022-07-10T01:04:28;6.57;;;5.72;;
22429;SDS011;11382;48.086;11.632;2022-07-10T01:06:56;8.07;;;6.13;;
22429;SDS011;11382;48.086;11.632;2022-07-10T01:09:24;6.88;;;6.18;;
22429;SDS011;11382;48.086;11.632;2022-07-10T01:11:52;9.43;;;6.72;;
22429;SDS011;11382;48.086;11.632;2022-07-10T01:14:20;11.75;;;6.07;;
22429;SDS011;11382;48.086;11.632;2022-07-10T01:16:49;8.00;;;6.45;;
22429;SDS011;11382;48.086;11.632;2022-07-10T01:19:19;9.95;;;6.57;;
22429;SDS011;11382;48.086;11.632;2022-07-10T01:21:48;8.75;;;7.18;;
22429;SDS011;11382;48.086;11.632;2022-07-10T01:24:16;6.95;;;6.25;;
22429;SDS011;11382;48.086;11.632;2022-07-10T01:26:44;9.70;;;6.70;;
22429;SDS011;11382;48.086;11.632;2022-07-10T01:29:12;8.55;;;7.47;;
22429;SDS011;11382;48.086;11.632;2022-07-10T01:31:40;7.70;;;6.90;;
22429;SDS011;11382;48.086;11.632;2022-07-10T01:34:08;8.00;;;7.20;;
22429;SDS011;11382;48.086;11.632;2022-07-10T01:36:37;7.95;;;7.15;;
22429;SDS011;11382;48.086;11.632;2022-07-10T01:39:06;8.65;;;7.68;;
22429;SDS011;11382;48.086;11.632;2022-07-10T01:41:34;7.75;;;7.00;;
22429;SDS011;11382;48.086;11.632;2022-07-10T01:44:02;8.30;;;7.32;;
22429;SDS011;11382;48.086;11.632;2022-07-10T01:46:30;9.68;;;6.88;;
22429;SDS011;11382;48.086;11.632;2022-07-10T01:48:58;8.50;;;6.93;;
22429;SDS011;11382;48.086;11.632;2022-07-10T01:51:26;7.70;;;6.90;;
22429;SDS011;11382;48.086;11.632;2022-07-10T01:53:54;7.80;;;7.00;;
22429;SDS011;11382;48.086;11.632;2022-07-10T01:56:23;7.97;;;7.18;;
22429;SDS011;11382;48.086;11.632;2022-07-10T01:58:51;8.20;;;6.68;;
22429;SDS011;11382;48.086;11.632;2022-07-10T02:01:19;8.52;;;7.32;;
22429;SDS011;11382;48.086;11.632;2022-07-10T02:03:47;8.43;;;7.32;;
22429;SDS011;11382;48.086;11.632;2022-07-10T02:06:32;8.27;;;6.97;;
22429;SDS011;11382;48.086;11.632;2022-07-10T02:09:00;11.00;;;7.80;;
22429;SDS011;11382;48.086;11.632;2022-07-10T02:11:29;8.65;;;7.75;;
22429;SDS011;11382;48.086;11.632;2022-07-10T02:13:57;9.48;;;7.70;;
22429;SDS011;11382;48.086;11.632;2022-07-10T02:16:25;13.07;;;7.75;;
22429;SDS011;11382;48.086;11.632;2022-07-10T02:18:53;8.93;;;7.75;;
22429;SDS011;11382;48.086;11.632;2022-07-10T02:21:21;10.77;;;7.30;;
22429;SDS011;11382;48.086;11.632;2022-07-10T02:23:49;8.65;;;7.72;;
22429;SDS011;11382;48.086;11.632;2022-07-10T02:26:17;9.35;;;7.85;;
22429;SDS011;11382;48.086;11.632;2022-07-10T02:28:46;9.43;;;7.47;;
22429;SDS011;11382;48.086;11.632;2022-07-10T02:31:14;8.15;;;7.28;;
22429;SDS011;11382;48.086;11.632;2022-07-10T02:33:42;8.95;;;7.85;;
22429;SDS011;11382;48.086;11.632;2022-07-10T02:36:10;10.70;;;7.95;;
22429;SDS011;11382;48.086;11.632;2022-07-10T02:38:38;10.02;;;7.93;;
22429;SDS011;11382;48.086;11.632;2022-07-10T02:41:06;9.85;;;7.85;;
22429;SDS011;11382;48.086;11.632;2022-07-10T02:43:34;9.57;;;7.43;;
22429;SDS011;11382;48.086;11.632;2022-07-10T02:46:04;9.00;;;7.57;;
22429;SDS011;11382;48.086;11.632;2022-07-10T02:48:32;8.50;;;7.65;;
22429;SDS011;11382;48.086;11.632;2022-07-10T02:51:00;8.40;;;7.50;;
22429;SDS011;11382;48.086;11.632;2022-07-10T02:53:28;10.20;;;7.65;;
22429;SDS011;11382;48.086;11.632;2022-07-10T02:55:57;8.50;;;7.60;;
22429;SDS011;11382;48.086;11.632;2022-07-10T02:58:25;8.80;;;7.85;;
22429;SDS011;11382;48.086;11.632;2022-07-10T03:00:53;8.93;;;7.43;;
22429;SDS011;11382;48.086;11.632;2022-07-10T03:03:22;8.30;;;7.43;;
22429;SDS011;11382;48.086;11.632;2022-07-10T03:05:50;9.65;;;7.47;;
22429;SDS011;11382;48.086;11.632;2022-07-10T03:08:18;10.40;;;7.07;;
22429;SDS011;11382;48.086;11.632;2022-07-10T03:10:46;8.40;;;7.47;;
22429;SDS011;11382;48.086;11.632;2022-07-10T03:13:14;8.63;;;7.72;;
22429;SDS011;11382;48.086;11.632;2022-07-10T03:15:42;8.40;;;7.50;;
22429;SDS011;11382;48.086;11.632;2022-07-10T03:18:10;8.05;;;7.25;;
22429;SDS011;11382;48.086;11.632;2022-07-10T03:20:39;8.27;;;7.47;;
22429;SDS011;11382;48.086;11.632;2022-07-10T03:23:07;9.05;;;6.93;;
22429;SDS011;11382;48.086;11.632;2022-07-10T03:25:35;8.70;;;7.75;;
22429;SDS011;11382;48.086;11.632;2022-07-10T03:28:03;8.30;;;7.43;;
22429;SDS011;11382;48.086;11.632;2022-07-10T03:30:31;8.80;;;7.18;;
22429;SDS011;11382;48.086;11.632;2022-07-10T03:32:59;11.27;;;7.25;;
22429;SDS011;11382;48.086;11.632;2022-07-10T03:35:27;7.70;;;7.00;;
22429;SDS011;11382;48.086;11.632;2022-07-10T03:37:58;9.35;;;7.10;;
22429;SDS011;11382;48.086;11.632;2022-07-10T03:40:27;8.20;;;7.35;;
22429;SDS011;11382;48.086;11.632;2022-07-10T03:42:55;8.18;;;7.38;;
22429;SDS011;11382;48.086;11.632;2022-07-10T03:45:23;8.10;;;7.30;;
22429;SDS011;11382;48.086;11.632;2022-07-10T03:47:50;8.40;;;7.35;;
22429;SDS011;11382;48.086;11.632;2022-07-10T03:50:19;8.75;;;7.68;;
22429;SDS011;11382;48.086;11.632;2022-07-10T03:52:47;7.85;;;7.05;;
22429;SDS011;11382;48.086;11.632;2022-07-10T03:55:16;8.82;;;7.20;;
22429;SDS011;11382;48.086;11.632;2022-07-10T03:57:44;7.47;;;6.75;;
22429;SDS011;11382;48.086;11.632;2022-07-10T04:00:20;8.43;;;7.00;;
22429;SDS011;11382;48.086;11.632;2022-07-10T04:02:53;7.95;;;7.15;;
22429;SDS011;11382;48.086;11.632;2022-07-10T04:05:23;7.93;;;7.13;;
22429;SDS011;11382;48.086;11.632;2022-07-10T04:07:51;8.38;;;6.78;;
22429;SDS011;11382;48.086;11.632;2022-07-10T04:10:21;7.63;;;6.70;;
22429;SDS011;11382;48.086;11.632;2022-07-10T04:12:49;8.23;;;7.43;;
22429;SDS011;11382;48.086;11.632;2022-07-10T04:15:17;8.60;;;7.15;;
22429;SDS011;11382;48.086;11.632;2022-07-10T04:17:45;7.93;;;6.80;;
22429;SDS011;11382;48.086;11.632;2022-07-10T04:20:14;8.48;;;6.95;;
22429;SDS011;11382;48.086;11.632;2022-07-10T04:22:43;9.93;;;7.22;;
22429;SDS011;11382;48.086;11.632;2022-07-10T04:25:11;8.30;;;7.00;;
22429;SDS011;11382;48.086;11.632;2022-07-10T04:27:41;7.32;;;6.63;;
22429;SDS011;11382;48.086;11.632;2022-07-10T04:30:09;9.98;;;6.40;;
22429;SDS011;11382;48.086;11.632;2022-07-10T04:32:37;7.55;;;6.80;;
22429;SDS011;11382;48.086;11.632;2022-07-10T04:35:05;8.45;;;7.00;;
22429;SDS011;11382;48.086;11.632;2022-07-10T04:37:34;7.57;;;6.78;;
22429;SDS011;11382;48.086;11.632;2022-07-10T04:40:03;8.70;;;7.30;;
22429;SDS011;11382;48.086;11.632;2022-07-10T04:42:32;7.85;;;7.05;;
22429;SDS011;11382;48.086;11.632;2022-07-10T04:45:01;9.10;;;7.57;;
22429;SDS011;11382;48.086;11.632;2022-07-10T04:47:29;8.52;;;7.65;;
22429;SDS011;11382;48.086;11.632;2022-07-10T04:49:57;8.48;;;7.38;;
22429;SDS011;11382;48.086;11.632;2022-07-10T04:52:25;9.02;;;7.50;;
22429;SDS011;11382;48.086;11.632;2022-07-10T04:54:53;8.20;;;7.30;;
22429;SDS011;11382;48.086;11.632;2022-07-10T04:57:21;8.35;;;7.05;;
22429;SDS011;11382;48.086;11.632;2022-07-10T04:59:49;9.02;;;7.10;;
22429;SDS011;11382;48.086;11.632;2022-07-10T05:02:18;7.93;;;7.13;;
22429;SDS011;11382;48.086;11.632;2022-07-10T05:04:46;9.00;;;7.38;;
22429;SDS011;11382;48.086;11.632;2022-07-10T05:07:14;7.32;;;6.63;;
22429;SDS011;11382;48.086;11.632;2022-07-10T05:09:42;8.65;;;7.20;;
22429;SDS011;11382;48.086;11.632;2022-07-10T05:12:10;10.48;;;7.60;;
22429;SDS011;11382;48.086;11.632;2022-07-10T05:14:38;7.95;;;7.15;;
22429;SDS011;11382;48.086;11.632;2022-07-10T05:17:06;10.23;;;7.90;;
22429;SDS011;11382;48.086;11.632;2022-07-10T05:19:35;9.20;;;7.90;;
22429;SDS011;11382;48.086;11.632;2022-07-10T05:22:03;10.32;;;8.40;;
22429;SDS011;11382;48.086;11.632;2022-07-10T05:24:32;9.63;;;8.32;;
22429;SDS011;11382;48.086;11.632;2022-07-10T05:27:01;9.60;;;8.00;;
22429;SDS011;11382;48.086;11.632;2022-07-10T05:29:36;9.65;;;8.57;;
22429;SDS011;11382;48.086;11.632;2022-07-10T05:32:06;10.23;;;9.23;;
22429;SDS011;11382;48.086;11.632;2022-07-10T05:34:36;11.55;;;9.02;;
22429;SDS011;11382;48.086;11.632;2022-07-10T05:37:04;10.35;;;8.73;;
22429;SDS011;11382;48.086;11.632;2022-07-10T05:39:33;9.82;;;8.77;;
22429;SDS011;11382;48.086;11.632;2022-07-10T05:42:01;9.98;;;8.20;;
22429;SDS011;11382;48.086;11.632;2022-07-10T05:44:29;9.95;;;8.80;;
22429;SDS011;11382;48.086;11.632;2022-07-10T05:46:57;11.82;;;8.57;;
22429;SDS011;11382;48.086;11.632;2022-07-10T05:49:26;9.63;;;8.63;;
22429;SDS011;11382;48.086;11.632;2022-07-10T05:51:55;9.75;;;8.75;;
22429;SDS011;11382;48.086;11.632;2022-07-10T05:54:23;10.60;;;9.23;;
22429;SDS011;11382;48.086;11.632;2022-07-10T05:56:51;10.02;;;9.02;;
22429;SDS011;11382;48.086;11.632;2022-07-10T05:59:19;10.20;;;8.20;;
22429;SDS011;11382;48.086;11.632;2022-07-10T06:01:48;10.70;;;8.50;;
22429;SDS011;11382;48.086;11.632;2022-07-10T06:04:16;9.80;;;8.80;;
22429;SDS011;11382;48.086;11.632;2022-07-10T06:06:44;9.80;;;8.80;;
22429;SDS011;11382;48.086;11.632;2022-07-10T06:09:14;9.52;;;8.52;;
22429;SDS011;11382;48.086;11.632;2022-07-10T06:11:42;10.40;;;8.80;;
22429;SDS011;11382;48.086;11.632;2022-07-10T06:14:11;10.40;;;8.80;;
22429;SDS011;11382;48.086;11.632;2022-07-10T06:16:39;9.15;;;8.23;;
22429;SDS011;11382;48.086;11.632;2022-07-10T06:19:07;8.85;;;7.97;;
22429;SDS011;11382;48.086;11.632;2022-07-10T06:21:35;8.18;;;7.38;;
22429;SDS011;11382;48.086;11.632;2022-07-10T06:24:03;9.48;;;7.47;;
22429;SDS011;11382;48.086;11.632;2022-07-10T06:26:33;8.75;;;7.85;;
22429;SDS011;11382;48.086;11.632;2022-07-10T06:29:01;10.88;;;8.32;;
22429;SDS011;11382;48.086;11.632;2022-07-10T06:31:29;10.52;;;8.50;;
22429;SDS011;11382;48.086;11.632;2022-07-10T06:33:57;9.60;;;8.32;;
22429;SDS011;11382;48.086;11.632;2022-07-10T06:36:25;10.00;;;8.98;;
22429;SDS011;11382;48.086;11.632;2022-07-10T06:41:26;9.95;;;8.40;;
22429;SDS011;11382;48.086;11.632;2022-07-10T06:43:56;9.02;;;7.97;;
22429;SDS011;11382;48.086;11.632;2022-07-10T06:46:24;8.45;;;7.47;;
22429;SDS011;11382;48.086;11.632;2022-07-10T06:48:52;8.35;;;7.55;;
22429;SDS011;11382;48.086;11.632;2022-07-10T06:51:19;9.23;;;8.05;;
22429;SDS011;11382;48.086;11.632;2022-07-10T06:53:47;8.77;;;7.80;;
22429;SDS011;11382;48.086;11.632;2022-07-10T06:56:15;7.70;;;7.00;;
22429;SDS011;11382;48.086;11.632;2022-07-10T06:58:44;8.18;;;7.43;;
22429;SDS011;11382;48.086;11.632;2022-07-10T07:01:19;9.43;;;8.48;;
22429;SDS011;11382;48.086;11.632;2022-07-10T07:03:47;9.52;;;8.38;;
22429;SDS011;11382;48.086;11.632;2022-07-10T07:06:15;10.27;;;8.65;;
22429;SDS011;11382;48.086;11.632;2022-07-10T07:08:43;11.63;;;8.88;;
22429;SDS011;11382;48.086;11.632;2022-07-10T07:11:11;11.70;;;9.48;;
22429;SDS011;11382;48.086;11.632;2022-07-10T07:13:39;8.95;;;8.05;;
22429;SDS011;11382;48.086;11.632;2022-07-10T07:16:07;9.73;;;8.57;;
22429;SDS011;11382;48.086;11.632;2022-07-10T07:18:37;10.13;;;8.48;;
22429;SDS011;11382;48.086;11.632;2022-07-10T07:21:13;11.10;;;8.27;;
22429;SDS011;11382;48.086;11.632;2022-07-10T07:24:04;9.10;;;8.18;;
22429;SDS011;11382;48.086;11.632;2022-07-10T07:26:33;9.32;;;8.32;;
22429;SDS011;11382;48.086;11.632;2022-07-10T07:29:01;10.23;;;8.07;;
22429;SDS011;11382;48.086;11.632;2022-07-10T07:31:29;9.50;;;8.18;;
22429;SDS011;11382;48.086;11.632;2022-07-10T07:33:59;8.68;;;7.60;;
22429;SDS011;11382;48.086;11.632;2022-07-10T07:36:26;9.60;;;7.63;;
22429;SDS011;11382;48.086;11.632;2022-07-10T07:38:54;10.05;;;8.05;;
22429;SDS011;11382;48.086;11.632;2022-07-10T07:41:22;9.30;;;8.13;;
22429;SDS011;11382;48.086;11.632;2022-07-10T07:43:50;8.80;;;7.90;;
22429;SDS011;11382;48.086;11.632;2022-07-10T07:46:18;9.27;;;8.25;;
22429;SDS011;11382;48.086;11.632;2022-07-10T07:48:47;8.93;;;7.50;;
22429;SDS011;11382;48.086;11.632;2022-07-10T07:51:17;9.48;;;7.47;;
22429;SDS011;11382;48.086;11.632;2022-07-10T07:53:45;9.77;;;7.18;;
22429;SDS011;11382;48.086;11.632;2022-07-10T07:56:13;8.55;;;7.20;;
22429;SDS011;11382;48.086;11.632;2022-07-10T07:58:42;7.35;;;6.50;;
22429;SDS011;11382;48.086;11.632;2022-07-10T08:01:10;7.18;;;6.10;;
22429;SDS011;11382;48.086;11.632;2022-07-10T08:03:38;9.90;;;6.40;;
22429;SDS011;11382;48.086;11.632;2022-07-10T08:06:27;7.20;;;5.57;;
22429;SDS011;11382;48.086;11.632;2022-07-10T08:08:55;5.78;;;5.28;;
22429;SDS011;11382;48.086;11.632;2022-07-10T08:11:23;5.95;;;5.22;;
22429;SDS011;11382;48.086;11.632;2022-07-10T08:13:51;5.75;;;4.88;;
22429;SDS011;11382;48.086;11.632;2022-07-10T08:16:19;5.15;;;4.30;;
22429;SDS011;11382;48.086;11.632;2022-07-10T08:18:47;8.90;;;4.93;;
22429;SDS011;11382;48.086;11.632;2022-07-10T08:21:17;5.25;;;4.32;;
22429;SDS011;11382;48.086;11.632;2022-07-10T08:23:46;7.00;;;4.88;;
22429;SDS011;11382;48.086;11.632;2022-07-10T08:26:14;6.47;;;4.32;;
22429;SDS011;11382;48.086;11.632;2022-07-10T08:28:42;5.70;;;4.28;;
22429;SDS011;11382;48.086;11.632;2022-07-10T08:31:10;5.40;;;4.10;;
22429;SDS011;11382;48.086;11.632;2022-07-10T08:33:41;4.80;;;3.95;;
22429;SDS011;11382;48.086;11.632;2022-07-10T08:36:09;4.85;;;3.20;;
22429;SDS011;11382;48.086;11.632;2022-07-10T08:38:59;5.53;;;3.60;;
22429;SDS011;11382;48.086;11.632;2022-07-10T08:41:27;5.28;;;3.33;;
22429;SDS011;11382;48.086;11.632;2022-07-10T08:43:58;4.15;;;3.10;;
22429;SDS011;11382;48.086;11.632;2022-07-10T08:46:26;4.07;;;3.33;;
22429;SDS011;11382;48.086;11.632;2022-07-10T08:48:55;4.20;;;3.03;;
22429;SDS011;11382;48.086;11.632;2022-07-10T08:51:30;3.53;;;2.65;;
22429;SDS011;11382;48.086;11.632;2022-07-10T08:54:05;3.53;;;2.60;;
22429;SDS011;11382;48.086;11.632;2022-07-10T08:56:34;4.25;;;2.85;;
22429;SDS011;11382;48.086;11.632;2022-07-10T08:59:04;5.47;;;2.85;;
22429;SDS011;11382;48.086;11.632;2022-07-10T09:01:32;4.90;;;2.92;;
22429;SDS011;11382;48.086;11.632;2022-07-10T09:04:00;4.22;;;3.15;;
22429;SDS011;11382;48.086;11.632;2022-07-10T09:06:28;5.63;;;2.60;;
22429;SDS011;11382;48.086;11.632;2022-07-10T09:08:58;4.60;;;2.70;;
22429;SDS011;11382;48.086;11.632;2022-07-10T09:11:30;6.05;;;2.72;;
22429;SDS011;11382;48.086;11.632;2022-07-10T09:13:59;4.68;;;2.72;;
22429;SDS011;11382;48.086;11.632;2022-07-10T09:16:30;3.42;;;2.50;;
22429;SDS011;11382;48.086;11.632;2022-07-10T09:19:14;4.28;;;2.50;;
22429;SDS011;11382;48.086;11.632;2022-07-10T09:21:43;4.53;;;2.50;;
22429;SDS011;11382;48.086;11.632;2022-07-10T09:24:11;6.97;;;2.63;;
22429;SDS011;11382;48.086;11.632;2022-07-10T09:26:41;4.45;;;2.35;;
22429;SDS011;11382;48.086;11.632;2022-07-10T09:29:11;3.80;;;2.90;;
22429;SDS011;11382;48.086;11.632;2022-07-10T09:31:47;5.00;;;2.50;;
22429;SDS011;11382;48.086;11.632;2022-07-10T09:34:16;3.45;;;2.05;;
22429;SDS011;11382;48.086;11.632;2022-07-10T09:36:44;4.10;;;2.33;;
22429;SDS011;11382;48.086;11.632;2022-07-10T09:39:12;3.97;;;2.28;;
22429;SDS011;11382;48.086;11.632;2022-07-10T09:41:41;3.63;;;2.03;;
22429;SDS011;11382;48.086;11.632;2022-07-10T09:44:09;4.28;;;2.08;;
22429;SDS011;11382;48.086;11.632;2022-07-10T09:46:38;4.38;;;2.08;;
22429;SDS011;11382;48.086;11.632;2022-07-10T09:49:08;4.47;;;2.20;;
22429;SDS011;11382;48.086;11.632;2022-07-10T09:51:38;3.83;;;1.85;;
22429;SDS011;11382;48.086;11.632;2022-07-10T09:54:13;3.65;;;2.30;;
22429;SDS011;11382;48.086;11.632;2022-07-10T09:56:43;4.47;;;2.08;;
22429;SDS011;11382;48.086;11.632;2022-07-10T09:59:13;3.90;;;2.00;;
22429;SDS011;11382;48.086;11.632;2022-07-10T10:01:43;3.25;;;2.17;;
22429;SDS011;11382;48.086;11.632;2022-07-10T10:04:13;7.63;;;2.20;;
22429;SDS011;11382;48.086;11.632;2022-07-10T10:06:42;4.03;;;1.92;;
22429;SDS011;11382;48.086;11.632;2022-07-10T10:09:14;2.72;;;1.50;;
22429;SDS011;11382;48.086;11.632;2022-07-10T10:11:53;2.63;;;1.63;;
22429;SDS011;11382;48.086;11.632;2022-07-10T10:14:27;3.05;;;2.10;;
22429;SDS011;11382;48.086;11.632;2022-07-10T10:16:56;4.63;;;2.00;;
22429;SDS011;11382;48.086;11.632;2022-07-10T10:19:24;3.20;;;1.98;;
22429;SDS011;11382;48.086;11.632;2022-07-10T10:22:11;2.55;;;2.13;;
22429;SDS011;11382;48.086;11.632;2022-07-10T10:24:42;3.63;;;1.92;;
22429;SDS011;11382;48.086;11.632;2022-07-10T10:27:13;4.80;;;2.28;;
22429;SDS011;11382;48.086;11.632;2022-07-10T10:29:42;4.47;;;1.73;;
22429;SDS011;11382;48.086;11.632;2022-07-10T10:32:12;2.13;;;1.80;;
22429;SDS011;11382;48.086;11.632;2022-07-10T10:34:40;3.25;;;2.17;;
22429;SDS011;11382;48.086;11.632;2022-07-10T10:40:03;3.67;;;1.73;;
22429;SDS011;11382;48.086;11.632;2022-07-10T10:42:34;2.90;;;1.50;;
22429;SDS011;11382;48.086;11.632;2022-07-10T10:45:21;3.08;;;1.60;;
22429;SDS011;11382;48.086;11.632;2022-07-10T10:47:59;4.90;;;1.73;;
22429;SDS011;11382;48.086;11.632;2022-07-10T10:50:48;2.53;;;1.63;;
22429;SDS011;11382;48.086;11.632;2022-07-10T10:53:18;4.13;;;1.83;;
22429;SDS011;11382;48.086;11.632;2022-07-10T10:58:54;5.38;;;1.90;;
22429;SDS011;11382;48.086;11.632;2022-07-10T11:01:25;3.65;;;1.80;;
22429;SDS011;11382;48.086;11.632;2022-07-10T11:06:44;3.90;;;1.60;;
22429;SDS011;11382;48.086;11.632;2022-07-10T11:09:23;2.90;;;1.40;;
22429;SDS011;11382;48.086;11.632;2022-07-10T11:11:59;3.70;;;1.83;;
22429;SDS011;11382;48.086;11.632;2022-07-10T11:14:30;3.03;;;1.42;;
22429;SDS011;11382;48.086;11.632;2022-07-10T11:16:59;3.30;;;1.80;;
22429;SDS011;11382;48.086;11.632;2022-07-10T11:19:28;5.47;;;1.52;;
22429;SDS011;11382;48.086;11.632;2022-07-10T11:21:59;3.50;;;1.85;;
22429;SDS011;11382;48.086;11.632;2022-07-10T11:24:40;3.67;;;1.83;;
22429;SDS011;11382;48.086;11.632;2022-07-10T11:27:16;3.25;;;1.77;;
22429;SDS011;11382;48.086;11.632;2022-07-10T11:29:58;2.38;;;1.83;;
22429;SDS011;11382;48.086;11.632;2022-07-10T11:32:27;5.05;;;1.67;;
22429;SDS011;11382;48.086;11.632;2022-07-10T11:34:56;4.00;;;2.00;;
22429;SDS011;11382;48.086;11.632;2022-07-10T11:37:25;3.03;;;2.00;;
22429;SDS011;11382;48.086;11.632;2022-07-10T11:40:08;3.33;;;1.80;;
22429;SDS011;11382;48.086;11.632;2022-07-10T11:42:50;3.22;;;1.67;;
22429;SDS011;11382;48.086;11.632;2022-07-10T11:45:26;4.78;;;1.73;;
22429;SDS011;11382;48.086;11.632;2022-07-10T11:47:56;3.65;;;1.30;;
22429;SDS011;11382;48.086;11.632;2022-07-10T11:50:25;3.40;;;1.50;;
22429;SDS011;11382;48.086;11.632;2022-07-10T11:52:54;2.53;;;1.70;;
22429;SDS011;11382;48.086;11.632;2022-07-10T11:55:22;3.78;;;1.48;;
22429;SDS011;11382;48.086;11.632;2022-07-10T11:57:51;3.28;;;1.70;;
22429;SDS011;11382;48.086;11.632;2022-07-10T12:00:23;3.97;;;1.90;;
22429;SDS011;11382;48.086;11.632;2022-07-10T12:02:53;3.55;;;1.60;;
22429;SDS011;11382;48.086;11.632;2022-07-10T12:05:35;3.95;;;1.50;;
22429;SDS011;11382;48.086;11.632;2022-07-10T12:08:04;3.78;;;1.90;;
22429;SDS011;11382;48.086;11.632;2022-07-10T12:10:33;1.88;;;1.50;;
22429;SDS011;11382;48.086;11.632;2022-07-10T12:13:03;5.85;;;2.00;;
22429;SDS011;11382;48.086;11.632;2022-07-10T12:15:32;3.70;;;1.60;;
22429;SDS011;11382;48.086;11.632;2022-07-10T12:18:04;2.63;;;1.30;;
22429;SDS011;11382;48.086;11.632;2022-07-10T12:20:33;3.13;;;1.60;;
22429;SDS011;11382;48.086;11.632;2022-07-10T12:23:03;1.95;;;1.27;;
22429;SDS011;11382;48.086;11.632;2022-07-10T12:25:31;3.15;;;1.75;;
22429;SDS011;11382;48.086;11.632;2022-07-10T12:27:59;4.32;;;1.50;;
22429;SDS011;11382;48.086;11.632;2022-07-10T12:30:37;6.20;;;2.00;;
22429;SDS011;11382;48.086;11.632;2022-07-10T12:33:09;3.92;;;1.60;;
22429;SDS011;11382;48.086;11.632;2022-07-10T12:35:49;3.03;;;1.70;;
22429;SDS011;11382;48.086;11.632;2022-07-10T12:38:18;3.63;;;1.70;;
22429;SDS011;11382;48.086;11.632;2022-07-10T12:40:47;2.20;;;1.60;;
22429;SDS011;11382;48.086;11.632;2022-07-10T12:43:24;3.65;;;1.70;;
22429;SDS011;11382;48.086;11.632;2022-07-10T12:46:12;3.95;;;1.50;;
22429;SDS011;11382;48.086;11.632;2022-07-10T12:49:04;3.22;;;1.80;;
22429;SDS011;11382;48.086;11.632;2022-07-10T12:51:33;4.75;;;1.52;;
22429;SDS011;11382;48.086;11.632;2022-07-10T12:54:31;4.00;;;1.80;;
22429;SDS011;11382;48.086;11.632;2022-07-10T12:57:00;2.03;;;1.45;;
22429;SDS011;11382;48.086;11.632;2022-07-10T12:59:32;4.70;;;1.40;;
22429;SDS011;11382;48.086;11.632;2022-07-10T13:02:13;2.50;;;1.60;;
22429;SDS011;11382;48.086;11.632;2022-07-10T13:04:52;2.72;;;1.40;;
22429;SDS011;11382;48.086;11.632;2022-07-10T13:07:28;4.75;;;1.60;;
22429;SDS011;11382;48.086;11.632;2022-07-10T13:10:01;2.33;;;1.45;;
22429;SDS011;11382;48.086;11.632;2022-07-10T13:12:30;4.65;;;1.70;;
22429;SDS011;11382;48.086;11.632;2022-07-10T13:14:59;4.72;;;1.40;;
22429;SDS011;11382;48.086;11.632;2022-07-10T13:17:27;1.90;;;1.25;;
22429;SDS011;11382;48.086;11.632;2022-07-10T13:19:56;3.35;;;1.38;;
22429;SDS011;11382;48.086;11.632;2022-07-10T13:22:26;3.22;;;1.50;;
22429;SDS011;11382;48.086;11.632;2022-07-10T13:24:54;2.90;;;1.40;;
22429;SDS011;11382;48.086;11.632;2022-07-10T13:27:23;1.80;;;1.40;;
22429;SDS011;11382;48.086;11.632;2022-07-10T13:29:50;3.55;;;1.40;;
22429;SDS011;11382;48.086;11.632;2022-07-10T13:32:18;2.67;;;1.50;;
22429;SDS011;11382;48.086;11.632;2022-07-10T13:34:53;3.28;;;1.33;;
22429;SDS011;11382;48.086;11.632;2022-07-10T13:37:23;2.40;;;1.50;;
22429;SDS011;11382;48.086;11.632;2022-07-10T13:39:52;4.38;;;1.60;;
22429;SDS011;11382;48.086;11.632;2022-07-10T13:42:20;1.70;;;1.27;;
22429;SDS011;11382;48.086;11.632;2022-07-10T13:44:48;1.42;;;1.30;;
22429;SDS011;11382;48.086;11.632;2022-07-10T13:47:16;1.80;;;1.45;;
22429;SDS011;11382;48.086;11.632;2022-07-10T13:49:44;2.78;;;1.25;;
22429;SDS011;11382;48.086;11.632;2022-07-10T13:52:12;1.83;;;1.35;;
22429;SDS011;11382;48.086;11.632;2022-07-10T13:54:41;2.67;;;1.30;;
22429;SDS011;11382;48.086;11.632;2022-07-10T13:57:09;4.90;;;1.65;;
22429;SDS011;11382;48.086;11.632;2022-07-10T13:59:37;2.03;;;1.17;;
22429;SDS011;11382;48.086;11.632;2022-07-10T14:02:06;3.28;;;1.40;;
22429;SDS011;11382;48.086;11.632;2022-07-10T14:04:41;2.67;;;1.55;;
22429;SDS011;11382;48.086;11.632;2022-07-10T14:07:09;3.00;;;1.40;;
22429;SDS011;11382;48.086;11.632;2022-07-10T14:09:37;3.95;;;1.55;;
22429;SDS011;11382;48.086;11.632;2022-07-10T14:12:06;2.80;;;1.20;;
22429;SDS011;11382;48.086;11.632;2022-07-10T14:14:35;3.10;;;1.38;;
22429;SDS011;11382;48.086;11.632;2022-07-10T14:17:03;2.45;;;1.20;;
22429;SDS011;11382;48.086;11.632;2022-07-10T14:19:31;3.35;;;1.30;;
22429;SDS011;11382;48.086;11.632;2022-07-10T14:21:59;4.55;;;1.30;;
22429;SDS011;11382;48.086;11.632;2022-07-10T14:24:27;2.30;;;1.08;;
22429;SDS011;11382;48.086;11.632;2022-07-10T14:26:55;1.35;;;1.17;;
22429;SDS011;11382;48.086;11.632;2022-07-10T14:29:25;1.63;;;1.20;;
22429;SDS011;11382;48.086;11.632;2022-07-10T14:31:53;3.40;;;1.40;;
22429;SDS011;11382;48.086;11.632;2022-07-10T14:34:21;2.22;;;1.38;;
22429;SDS011;11382;48.086;11.632;2022-07-10T14:36:50;2.55;;;1.40;;
22429;SDS011;11382;48.086;11.632;2022-07-10T14:39:25;3.20;;;1.40;;
22429;SDS011;11382;48.086;11.632;2022-07-10T14:41:53;2.15;;;1.17;;
22429;SDS011;11382;48.086;11.632;2022-07-10T14:44:22;5.38;;;1.30;;
22429;SDS011;11382;48.086;11.632;2022-07-10T14:46:51;2.63;;;1.27;;
22429;SDS011;11382;48.086;11.632;2022-07-10T14:49:19;2.42;;;1.48;;
22429;SDS011;11382;48.086;11.632;2022-07-10T14:51:47;3.72;;;1.35;;
22429;SDS011;11382;48.086;11.632;2022-07-10T14:54:15;3.80;;;1.42;;
22429;SDS011;11382;48.086;11.632;2022-07-10T14:56:43;2.72;;;1.30;;
22429;SDS011;11382;48.086;11.632;2022-07-10T14:59:11;2.60;;;1.20;;
22429;SDS011;11382;48.086;11.632;2022-07-10T15:01:41;2.53;;;1.20;;